AIC524 VOBL-VOHS
Flight info
| Callsign | AIC524 |
|---|---|
| Flight time | N/A |
| Altitude | 37000 |
| Route | LATID7B LATID Q22 SAKRO SARKA6 |
| Aircraft | B744/H-SDE3FGHIM1M2RWXY/LB1 |
Departure
| Time | 2026-04-28 05:13 |
|---|---|
| Airport | Kempegowda International Airport Bengaluru (VOBL) |
Arrival
| Time | N/A |
|---|---|
| Airport | Rajiv Gandhi International Airport (VOHS) |
| Time | Latitude | Longitude | Altitude | Speed | Heading |
|---|---|---|---|---|---|
| 2026-04-28 05:05 | 13.20260 | 77.70933 | 2971 ft | 0 kts | 90° |
| 2026-04-28 05:05 | 13.20260 | 77.70949 | 2971 ft | 1 kts | 90° |
| 2026-04-28 05:06 | 13.20260 | 77.71011 | 2969 ft | 9 kts | 91° |
| 2026-04-28 05:06 | 13.20260 | 77.71070 | 2967 ft | 8 kts | 89° |
| 2026-04-28 05:06 | 13.20270 | 77.71151 | 2964 ft | 14 kts | 50° |
| 2026-04-28 05:06 | 13.20393 | 77.71174 | 2957 ft | 22 kts | 359° |
| 2026-04-28 05:07 | 13.20513 | 77.71222 | 2949 ft | 6 kts | 70° |
| 2026-04-28 05:07 | 13.20517 | 77.71241 | 2949 ft | 2 kts | 85° |
| 2026-04-28 05:07 | 13.20518 | 77.71255 | 2948 ft | 3 kts | 85° |
| 2026-04-28 05:07 | 13.20521 | 77.71310 | 2947 ft | 16 kts | 89° |
| 2026-04-28 05:08 | 13.20524 | 77.71526 | 2943 ft | 37 kts | 92° |
| 2026-04-28 05:08 | 13.20508 | 77.71727 | 2944 ft | 19 kts | 86° |
| 2026-04-28 05:08 | 13.20518 | 77.71850 | 2944 ft | 8 kts | 90° |
| 2026-04-28 05:08 | 13.20518 | 77.71877 | 2944 ft | 3 kts | 91° |
| 2026-04-28 05:09 | 13.20518 | 77.71886 | 2944 ft | 0 kts | 91° |
| 2026-04-28 05:09 | 13.20516 | 77.71972 | 2944 ft | 15 kts | 91° |
| 2026-04-28 05:09 | 13.20515 | 77.72062 | 2944 ft | 9 kts | 91° |
| 2026-04-28 05:09 | 13.20514 | 77.72106 | 2944 ft | 3 kts | 91° |
| 2026-04-28 05:10 | 13.20514 | 77.72141 | 2944 ft | 16 kts | 91° |
| 2026-04-28 05:10 | 13.20519 | 77.72227 | 2943 ft | 13 kts | 76° |
| 2026-04-28 05:10 | 13.20552 | 77.72261 | 2941 ft | 4 kts | 27° |
| 2026-04-28 05:10 | 13.20566 | 77.72268 | 2941 ft | 0 kts | 22° |
| 2026-04-28 05:11 | 13.20602 | 77.72279 | 2941 ft | 12 kts | 7° |
| 2026-04-28 05:11 | 13.20678 | 77.72225 | 2941 ft | 16 kts | 275° |
| 2026-04-28 05:11 | 13.20687 | 77.72102 | 2940 ft | 17 kts | 267° |
| 2026-04-28 05:11 | 13.20687 | 77.71805 | 2938 ft | 68 kts | 268° |
| 2026-04-28 05:12 | 13.20698 | 77.71235 | 2941 ft | 85 kts | 265° |
| 2026-04-28 05:12 | 13.20702 | 77.70477 | 2987 ft | 127 kts | 270° |
| 2026-04-28 05:12 | 13.20705 | 77.69389 | 3007 ft | 179 kts | 269° |
| 2026-04-28 05:12 | 13.20687 | 77.67977 | 3169 ft | 212 kts | 268° |
| 2026-04-28 05:13 | 13.20684 | 77.66464 | 3870 ft | 212 kts | 272° |
| 2026-04-28 05:13 | 13.20979 | 77.64635 | 5125 ft | 193 kts | 289° |
| 2026-04-28 05:13 | 13.21324 | 77.63748 | 5299 ft | 209 kts | 296° |
| 2026-04-28 05:13 | 13.22273 | 77.61963 | 6044 ft | 211 kts | 306° |
| 2026-04-28 05:14 | 13.22880 | 77.61237 | 6550 ft | 205 kts | 314° |
| 2026-04-28 05:14 | 13.24086 | 77.60117 | 5698 ft | 268 kts | 319° |
| 2026-04-28 05:14 | 13.25515 | 77.58701 | 5292 ft | 304 kts | 310° |
| 2026-04-28 05:14 | 13.26848 | 77.57004 | 5841 ft | 308 kts | 307° |
| 2026-04-28 05:15 | 13.28107 | 77.55238 | 6578 ft | 307 kts | 307° |
| 2026-04-28 05:15 | 13.29620 | 77.53701 | 7176 ft | 308 kts | 326° |
| 2026-04-28 05:15 | 13.31536 | 77.52784 | 7808 ft | 308 kts | 345° |
| 2026-04-28 05:15 | 13.33662 | 77.52579 | 8428 ft | 309 kts | 5° |
| 2026-04-28 05:16 | 13.35748 | 77.53048 | 9044 ft | 308 kts | 16° |
| 2026-04-28 05:16 | 13.37758 | 77.53688 | 9649 ft | 307 kts | 16° |
| 2026-04-28 05:16 | 13.39788 | 77.54349 | 10242 ft | 306 kts | 18° |
| 2026-04-28 05:17 | 13.43807 | 77.55772 | 11320 ft | 306 kts | 19° |
| 2026-04-28 05:17 | 13.46470 | 77.56747 | 11960 ft | 307 kts | 19° |
| 2026-04-28 05:17 | 13.47814 | 77.57243 | 12273 ft | 308 kts | 20° |
| 2026-04-28 05:17 | 13.50494 | 77.58238 | 12885 ft | 309 kts | 20° |
| 2026-04-28 05:18 | 13.51852 | 77.58746 | 13179 ft | 309 kts | 20° |
| 2026-04-28 05:18 | 13.53853 | 77.59495 | 13596 ft | 310 kts | 20° |
| 2026-04-28 05:18 | 13.55865 | 77.60247 | 13996 ft | 312 kts | 20° |
| 2026-04-28 05:18 | 13.58607 | 77.61276 | 14546 ft | 313 kts | 20° |
| 2026-04-28 05:19 | 13.59951 | 77.61781 | 14798 ft | 314 kts | 20° |
| 2026-04-28 05:19 | 13.62019 | 77.62556 | 15192 ft | 315 kts | 20° |
| 2026-04-28 05:19 | 13.64070 | 77.63329 | 15572 ft | 317 kts | 20° |
| 2026-04-28 05:19 | 13.66813 | 77.64359 | 16071 ft | 319 kts | 20° |
| 2026-04-28 05:20 | 13.68910 | 77.65147 | 16443 ft | 320 kts | 20° |
| 2026-04-28 05:20 | 13.70303 | 77.65672 | 16686 ft | 321 kts | 20° |
| 2026-04-28 05:20 | 13.73090 | 77.66721 | 17165 ft | 323 kts | 20° |
| 2026-04-28 05:20 | 13.74480 | 77.67245 | 17401 ft | 324 kts | 20° |
| 2026-04-28 05:21 | 13.76613 | 77.68049 | 17753 ft | 325 kts | 20° |
| 2026-04-28 05:21 | 13.79431 | 77.69111 | 18214 ft | 327 kts | 20° |
| 2026-04-28 05:21 | 13.80846 | 77.69644 | 18446 ft | 328 kts | 20° |
| 2026-04-28 05:21 | 13.83705 | 77.70722 | 18894 ft | 330 kts | 20° |
| 2026-04-28 05:22 | 13.85141 | 77.71262 | 19114 ft | 330 kts | 20° |
| 2026-04-28 05:22 | 13.87289 | 77.72071 | 19443 ft | 332 kts | 20° |
| 2026-04-28 05:22 | 13.90195 | 77.73167 | 19861 ft | 334 kts | 20° |
| 2026-04-28 05:22 | 13.92380 | 77.73991 | 20147 ft | 337 kts | 20° |
| 2026-04-28 05:23 | 13.93848 | 77.74546 | 20319 ft | 339 kts | 20° |
| 2026-04-28 05:23 | 13.96051 | 77.75377 | 20536 ft | 344 kts | 20° |
| 2026-04-28 05:23 | 13.98309 | 77.76228 | 20686 ft | 352 kts | 20° |
| 2026-04-28 05:23 | 14.00639 | 77.77106 | 20727 ft | 364 kts | 20° |
| 2026-04-28 05:24 | 14.03043 | 77.78014 | 20660 ft | 378 kts | 20° |
| 2026-04-28 05:24 | 14.05524 | 77.78952 | 21042 ft | 380 kts | 20° |
| 2026-04-28 05:24 | 14.08808 | 77.80192 | 21592 ft | 382 kts | 20° |
| 2026-04-28 05:24 | 14.10480 | 77.80823 | 21881 ft | 382 kts | 21° |
| 2026-04-28 05:25 | 14.12953 | 77.81758 | 22295 ft | 383 kts | 21° |
| 2026-04-28 05:25 | 14.15456 | 77.82704 | 22691 ft | 385 kts | 21° |
| 2026-04-28 05:25 | 14.18815 | 77.83974 | 23216 ft | 387 kts | 21° |
| 2026-04-28 05:25 | 14.20493 | 77.84608 | 23456 ft | 388 kts | 21° |
| 2026-04-28 05:26 | 14.23045 | 77.85573 | 23827 ft | 389 kts | 21° |
| 2026-04-28 05:26 | 14.25557 | 77.86524 | 24163 ft | 391 kts | 21° |
| 2026-04-28 05:26 | 14.28084 | 77.87481 | 24514 ft | 393 kts | 21° |
| 2026-04-28 05:26 | 14.30640 | 77.88448 | 24870 ft | 395 kts | 21° |
| 2026-04-28 05:27 | 14.33208 | 77.89420 | 25208 ft | 396 kts | 21° |
| 2026-04-28 05:27 | 14.35771 | 77.90391 | 25535 ft | 398 kts | 21° |
| 2026-04-28 05:27 | 14.38386 | 77.91381 | 25855 ft | 400 kts | 21° |
| 2026-04-28 05:27 | 14.40969 | 77.92360 | 26183 ft | 401 kts | 21° |
| 2026-04-28 05:28 | 14.43582 | 77.93351 | 26518 ft | 402 kts | 21° |
| 2026-04-28 05:28 | 14.46244 | 77.94355 | 26800 ft | 405 kts | 20° |
| 2026-04-28 05:28 | 14.49882 | 77.95181 | 27147 ft | 408 kts | 9° |
| 2026-04-28 05:28 | 14.51768 | 77.95479 | 27338 ft | 409 kts | 11° |
| 2026-04-28 05:29 | 14.54535 | 77.95976 | 27623 ft | 411 kts | 11° |
| 2026-04-28 05:29 | 14.57366 | 77.96443 | 27896 ft | 413 kts | 10° |
| 2026-04-28 05:29 | 14.60182 | 77.96919 | 28196 ft | 414 kts | 11° |
| 2026-04-28 05:29 | 14.62978 | 77.97388 | 28463 ft | 416 kts | 11° |
| 2026-04-28 05:30 | 14.65824 | 77.97860 | 28742 ft | 417 kts | 11° |
| 2026-04-28 05:30 | 14.68699 | 77.98338 | 29031 ft | 419 kts | 11° |
| 2026-04-28 05:30 | 14.71600 | 77.98818 | 29297 ft | 421 kts | 11° |
| 2026-04-28 05:30 | 14.74501 | 77.99298 | 29577 ft | 422 kts | 11° |
| 2026-04-28 05:31 | 14.77363 | 77.99771 | 29843 ft | 424 kts | 11° |
| 2026-04-28 05:31 | 14.80256 | 78.00249 | 30108 ft | 425 kts | 11° |
| 2026-04-28 05:31 | 14.83182 | 78.00731 | 30371 ft | 427 kts | 11° |
| 2026-04-28 05:31 | 14.87093 | 78.01376 | 30696 ft | 429 kts | 11° |
| 2026-04-28 05:32 | 14.89034 | 78.01697 | 30798 ft | 431 kts | 11° |
| 2026-04-28 05:32 | 14.92030 | 78.02192 | 30880 ft | 434 kts | 11° |
| 2026-04-28 05:32 | 14.97965 | 78.03172 | 30877 ft | 434 kts | 11° |
| 2026-04-28 05:33 | 15.03884 | 78.04149 | 30847 ft | 432 kts | 10° |
| 2026-04-28 05:33 | 15.10786 | 78.05288 | 30852 ft | 431 kts | 10° |
| 2026-04-28 05:34 | 15.15721 | 78.06104 | 30855 ft | 431 kts | 10° |
| 2026-04-28 05:34 | 15.21612 | 78.07076 | 30857 ft | 431 kts | 10° |
| 2026-04-28 05:35 | 15.28464 | 78.08209 | 30858 ft | 431 kts | 10° |
| 2026-04-28 05:35 | 15.33411 | 78.09028 | 30858 ft | 431 kts | 10° |
| 2026-04-28 05:36 | 15.39315 | 78.10006 | 30858 ft | 431 kts | 10° |
| 2026-04-28 05:36 | 15.45225 | 78.10986 | 30884 ft | 440 kts | 10° |
| 2026-04-28 05:37 | 15.51365 | 78.12002 | 30938 ft | 456 kts | 10° |
| 2026-04-28 05:37 | 15.57764 | 78.13065 | 30961 ft | 475 kts | 10° |
| 2026-04-28 05:38 | 15.65457 | 78.14342 | 30947 ft | 479 kts | 10° |
| 2026-04-28 05:38 | 15.67591 | 78.14696 | 30841 ft | 472 kts | 10° |
| 2026-04-28 05:38 | 15.70757 | 78.15221 | 30499 ft | 462 kts | 10° |
| 2026-04-28 05:39 | 15.73927 | 78.15747 | 29957 ft | 456 kts | 10° |
| 2026-04-28 05:39 | 15.77013 | 78.16260 | 29346 ft | 452 kts | 10° |
| 2026-04-28 05:39 | 15.81138 | 78.16946 | 28484 ft | 448 kts | 10° |
| 2026-04-28 05:39 | 15.83135 | 78.17278 | 28086 ft | 445 kts | 10° |
| 2026-04-28 05:40 | 15.86190 | 78.17786 | 27471 ft | 441 kts | 10° |
| 2026-04-28 05:40 | 15.89185 | 78.18285 | 26882 ft | 437 kts | 10° |
| 2026-04-28 05:40 | 15.92172 | 78.18782 | 26282 ft | 432 kts | 10° |
| 2026-04-28 05:40 | 15.95096 | 78.19270 | 25688 ft | 429 kts | 10° |
| 2026-04-28 05:41 | 15.97994 | 78.19752 | 25069 ft | 426 kts | 10° |
| 2026-04-28 05:41 | 16.01889 | 78.20401 | 24139 ft | 425 kts | 10° |
| 2026-04-28 05:41 | 16.03823 | 78.20724 | 23610 ft | 426 kts | 10° |
| 2026-04-28 05:41 | 16.07613 | 78.21356 | 22512 ft | 430 kts | 10° |
| 2026-04-28 05:42 | 16.10553 | 78.21847 | 21703 ft | 431 kts | 10° |
| 2026-04-28 05:42 | 16.13544 | 78.22346 | 20952 ft | 431 kts | 10° |
| 2026-04-28 05:42 | 16.16477 | 78.22835 | 20310 ft | 428 kts | 9° |
| 2026-04-28 05:42 | 16.19370 | 78.23318 | 19681 ft | 425 kts | 9° |
| 2026-04-28 05:43 | 16.21304 | 78.23640 | 19277 ft | 423 kts | 9° |
| 2026-04-28 05:43 | 16.24207 | 78.24125 | 18679 ft | 420 kts | 9° |
| 2026-04-28 05:43 | 16.27067 | 78.24603 | 18101 ft | 416 kts | 9° |
| 2026-04-28 05:43 | 16.29878 | 78.25073 | 17525 ft | 412 kts | 9° |
| 2026-04-28 05:44 | 16.32690 | 78.25542 | 16938 ft | 409 kts | 9° |
| 2026-04-28 05:44 | 16.35486 | 78.26010 | 16367 ft | 405 kts | 9° |
| 2026-04-28 05:44 | 16.38265 | 78.26475 | 15790 ft | 402 kts | 9° |
| 2026-04-28 05:44 | 16.41004 | 78.26932 | 15236 ft | 398 kts | 9° |
| 2026-04-28 05:45 | 16.43755 | 78.27393 | 14673 ft | 395 kts | 9° |
| 2026-04-28 05:45 | 16.46447 | 78.27844 | 14120 ft | 392 kts | 9° |
| 2026-04-28 05:45 | 16.49121 | 78.28291 | 13567 ft | 389 kts | 9° |
| 2026-04-28 05:45 | 16.52652 | 78.28883 | 12835 ft | 385 kts | 9° |
| 2026-04-28 05:46 | 16.55288 | 78.29325 | 12287 ft | 382 kts | 9° |
| 2026-04-28 05:46 | 16.57026 | 78.29617 | 11925 ft | 380 kts | 9° |
| 2026-04-28 05:46 | 16.59590 | 78.30047 | 11390 ft | 377 kts | 9° |
| 2026-04-28 05:46 | 16.62165 | 78.30479 | 10851 ft | 374 kts | 9° |
| 2026-04-28 05:47 | 16.64736 | 78.30911 | 10312 ft | 372 kts | 8° |
| 2026-04-28 05:47 | 16.67262 | 78.31335 | 9782 ft | 370 kts | 8° |
| 2026-04-28 05:47 | 16.69759 | 78.31754 | 9222 ft | 360 kts | 8° |
| 2026-04-28 05:47 | 16.72223 | 78.32169 | 8753 ft | 356 kts | 8° |
| 2026-04-28 05:48 | 16.74646 | 78.32575 | 8431 ft | 349 kts | 8° |
| 2026-04-28 05:48 | 16.76985 | 78.32968 | 8096 ft | 342 kts | 8° |
| 2026-04-28 05:48 | 16.79320 | 78.33360 | 7735 ft | 337 kts | 8° |
| 2026-04-28 05:48 | 16.81615 | 78.33745 | 7370 ft | 331 kts | 8° |
| 2026-04-28 05:49 | 16.84572 | 78.34242 | 7133 ft | 316 kts | 8° |
| 2026-04-28 05:49 | 16.85981 | 78.34479 | 7046 ft | 308 kts | 7° |
| 2026-04-28 05:49 | 16.88682 | 78.34934 | 6589 ft | 279 kts | 7° |
| 2026-04-28 05:49 | 16.89915 | 78.35166 | 6205 ft | 274 kts | 13° |
| 2026-04-28 05:50 | 16.91663 | 78.35950 | 5449 ft | 278 kts | 33° |
| 2026-04-28 05:50 | 16.93072 | 78.37355 | 4808 ft | 286 kts | 49° |
| 2026-04-28 05:50 | 16.94333 | 78.38935 | 4389 ft | 284 kts | 47° |
| 2026-04-28 05:50 | 16.96075 | 78.40977 | 3904 ft | 280 kts | 47° |
| 2026-04-28 05:51 | 16.97351 | 78.42503 | 3740 ft | 275 kts | 47° |
| 2026-04-28 05:51 | 16.98194 | 78.43488 | 3686 ft | 275 kts | 46° |
| 2026-04-28 05:51 | 16.99470 | 78.44990 | 3658 ft | 278 kts | 47° |
| 2026-04-28 05:51 | 17.00759 | 78.46505 | 3650 ft | 281 kts | 47° |
| 2026-04-28 05:52 | 17.02046 | 78.48016 | 3640 ft | 280 kts | 47° |
| 2026-04-28 05:52 | 17.03773 | 78.50040 | 3609 ft | 277 kts | 47° |
| 2026-04-28 05:52 | 17.04629 | 78.51045 | 3599 ft | 277 kts | 47° |
| 2026-04-28 05:52 | 17.05904 | 78.52541 | 3600 ft | 279 kts | 47° |
| 2026-04-28 05:53 | 17.07618 | 78.54549 | 3609 ft | 279 kts | 47° |
| 2026-04-28 05:53 | 17.08483 | 78.55563 | 3610 ft | 279 kts | 47° |
| 2026-04-28 05:53 | 17.10210 | 78.57591 | 3606 ft | 279 kts | 47° |
| 2026-04-28 05:53 | 17.11064 | 78.58591 | 3606 ft | 279 kts | 47° |
| 2026-04-28 05:54 | 17.12351 | 78.60101 | 3604 ft | 279 kts | 47° |
| 2026-04-28 05:54 | 17.13603 | 78.61639 | 3589 ft | 279 kts | 55° |
| 2026-04-28 05:54 | 17.14410 | 78.63502 | 3584 ft | 280 kts | 77° |
| 2026-04-28 05:54 | 17.14571 | 78.65511 | 3600 ft | 280 kts | 90° |
| 2026-04-28 05:55 | 17.14560 | 78.67562 | 3614 ft | 282 kts | 89° |
| 2026-04-28 05:55 | 17.14588 | 78.69637 | 3622 ft | 282 kts | 89° |
| 2026-04-28 05:55 | 17.14599 | 78.71661 | 3619 ft | 281 kts | 89° |
| 2026-04-28 05:55 | 17.14623 | 78.74380 | 3607 ft | 281 kts | 89° |
| 2026-04-28 05:56 | 17.14633 | 78.75758 | 3604 ft | 281 kts | 89° |
| 2026-04-28 05:56 | 17.14648 | 78.77800 | 3601 ft | 281 kts | 89° |
| 2026-04-28 05:56 | 17.14666 | 78.79846 | 3601 ft | 281 kts | 89° |
| 2026-04-28 05:56 | 17.14691 | 78.81866 | 3595 ft | 279 kts | 86° |
| 2026-04-28 05:57 | 17.15400 | 78.84442 | 3584 ft | 278 kts | 58° |
| 2026-04-28 05:57 | 17.16651 | 78.85980 | 3596 ft | 276 kts | 36° |
| 2026-04-28 05:57 | 17.18311 | 78.86928 | 3602 ft | 273 kts | 15° |
| 2026-04-28 05:57 | 17.20167 | 78.87184 | 3601 ft | 271 kts | 354° |
| 2026-04-28 05:58 | 17.21395 | 78.86950 | 3599 ft | 269 kts | 340° |
| 2026-04-28 05:58 | 17.23484 | 78.85582 | 3595 ft | 267 kts | 311° |
| 2026-04-28 05:58 | 17.24223 | 78.84536 | 3598 ft | 267 kts | 300° |
| 2026-04-28 05:58 | 17.24959 | 78.82760 | 3594 ft | 268 kts | 282° |
| 2026-04-28 05:59 | 17.25086 | 78.80830 | 3610 ft | 268 kts | 269° |
| 2026-04-28 05:59 | 17.25030 | 78.78213 | 3617 ft | 267 kts | 270° |
| 2026-04-28 05:59 | 17.25014 | 78.76943 | 3535 ft | 254 kts | 269° |
| 2026-04-28 05:59 | 17.24984 | 78.75166 | 3573 ft | 233 kts | 269° |
| 2026-04-28 06:00 | 17.24920 | 78.72971 | 3525 ft | 219 kts | 268° |
| 2026-04-28 06:00 | 17.24885 | 78.71923 | 3517 ft | 217 kts | 269° |
| 2026-04-28 06:00 | 17.24835 | 78.70364 | 3510 ft | 216 kts | 268° |
| 2026-04-28 06:00 | 17.24759 | 78.68784 | 3539 ft | 217 kts | 266° |
| 2026-04-28 06:01 | 17.24652 | 78.66681 | 3577 ft | 217 kts | 267° |
| 2026-04-28 06:01 | 17.24598 | 78.65630 | 3660 ft | 208 kts | 267° |
| 2026-04-28 06:01 | 17.24446 | 78.63748 | 3772 ft | 189 kts | 262° |
| 2026-04-28 06:01 | 17.24314 | 78.62836 | 3689 ft | 188 kts | 265° |
| 2026-04-28 06:02 | 17.24276 | 78.61024 | 3633 ft | 187 kts | 270° |
| 2026-04-28 06:02 | 17.24235 | 78.59651 | 3581 ft | 188 kts | 268° |
| 2026-04-28 06:02 | 17.24217 | 78.58738 | 3466 ft | 190 kts | 270° |
| 2026-04-28 06:02 | 17.24203 | 78.57349 | 3293 ft | 191 kts | 269° |
| 2026-04-28 06:03 | 17.24177 | 78.55474 | 3205 ft | 191 kts | 269° |
| 2026-04-28 06:03 | 17.24166 | 78.54575 | 3091 ft | 185 kts | 269° |
| 2026-04-28 06:03 | 17.24149 | 78.53258 | 2973 ft | 176 kts | 269° |
| 2026-04-28 06:03 | 17.24055 | 78.52003 | 2948 ft | 172 kts | 264° |
| 2026-04-28 06:04 | 17.23955 | 78.50732 | 2954 ft | 176 kts | 266° |
| 2026-04-28 06:04 | 17.23798 | 78.49447 | 2935 ft | 181 kts | 262° |
| 2026-04-28 06:04 | 17.23479 | 78.47734 | 2898 ft | 178 kts | 261° |
| 2026-04-28 06:04 | 17.23239 | 78.46549 | 2683 ft | 159 kts | 252° |
| 2026-04-28 06:05 | 17.22898 | 78.45464 | 2038 ft | 148 kts | 265° |
| 2026-04-28 06:05 | 17.22797 | 78.44483 | 2045 ft | 113 kts | 268° |
| 2026-04-28 06:05 | 17.22757 | 78.44051 | 2041 ft | 63 kts | 275° |